Time;durP1;ratioP1;P1;durP2;ratioP2;P2;SDS_P1;SDS_P2;PMS_P1;PMS_P2;Temp;Humidity;BMP_temperature;BMP_pressure;BME280_temperature;BME280_humidity;BME280_pressure;Samples;Min_cycle;Max_cycle;Signal;HPM_P1;HPM_P2
2022/03/01 00:01:16;;;;;;;13.85;6.75;;;;;;;;;;5068811;28;20058;-76
2022/03/01 00:03:42;;;;;;;13.52;7.45;;;;;;;;;;5071800;28;20571;-76
2022/03/01 00:06:08;;;;;;;13.10;7.38;;;;;;;;;;5072285;28;20877;-76
2022/03/01 00:08:34;;;;;;;13.90;6.75;;;;;;;;;;5075426;28;20114;-76
2022/03/01 00:11:00;;;;;;;16.17;7.60;;;;;;;;;;5075646;28;20040;-76
2022/03/01 00:13:27;;;;;;;12.63;6.93;;;;;;;;;;5073114;28;20047;-76
2022/03/01 00:15:53;;;;;;;13.85;6.75;;;;;;;;;;5073858;28;20078;-76
2022/03/01 00:18:19;;;;;;;14.43;8.18;;;;;;;;;;5071071;28;20045;-76
2022/03/01 00:20:45;;;;;;;18.17;7.43;;;;;;;;;;5065750;28;20110;-76
2022/03/01 00:23:11;;;;;;;14.50;7.82;;;;;;;;;;5070754;28;20044;-76
2022/03/01 00:25:37;;;;;;;12.98;6.32;;;;;;;;;;5067090;28;20675;-77
2022/03/01 00:28:03;;;;;;;12.95;7.35;;;;;;;;;;5072110;28;20116;-76
2022/03/01 00:30:29;;;;;;;15.02;7.68;;;;;;;;;;5073455;28;20581;-76
2022/03/01 00:32:55;;;;;;;12.45;6.38;;;;;;;;;;5067135;28;20049;-76
2022/03/01 00:35:22;;;;;;;15.77;8.23;;;;;;;;;;5069838;28;20056;-77
2022/03/01 00:37:48;;;;;;;10.95;5.97;;;;;;;;;;5070490;28;20890;-77
2022/03/01 00:40:14;;;;;;;15.55;6.63;;;;;;;;;;5070960;28;20207;-77
2022/03/01 00:42:40;;;;;;;10.45;6.40;;;;;;;;;;5071839;28;20581;-76
2022/03/01 00:45:06;;;;;;;10.40;5.45;;;;;;;;;;5073196;28;20557;-77
2022/03/01 00:47:32;;;;;;;18.08;6.93;;;;;;;;;;5070638;28;20095;-77
2022/03/01 00:49:58;;;;;;;15.45;9.15;;;;;;;;;;5071579;28;20048;-79
2022/03/01 00:52:25;;;;;;;15.30;7.10;;;;;;;;;;5073451;28;20612;-79
2022/03/01 00:54:51;;;;;;;15.73;7.55;;;;;;;;;;5068854;28;20040;-79
2022/03/01 00:57:17;;;;;;;12.40;7.05;;;;;;;;;;5071637;28;20453;-78
2022/03/01 00:59:43;;;;;;;15.32;6.63;;;;;;;;;;5071016;28;20143;-79
2022/03/01 01:02:09;;;;;;;13.65;6.13;;;;;;;;;;5069131;28;20135;-78
2022/03/01 01:04:37;;;;;;;12.90;6.00;;;;;;;;;;5066552;28;20522;-78
2022/03/01 01:07:03;;;;;;;19.48;7.78;;;;;;;;;;5070971;28;20102;-79
2022/03/01 01:09:29;;;;;;;16.42;6.78;;;;;;;;;;5067028;28;20052;-78
2022/03/01 01:11:55;;;;;;;12.23;6.35;;;;;;;;;;5066282;28;20048;-79
2022/03/01 01:14:21;;;;;;;12.32;5.65;;;;;;;;;;5071469;28;20037;-78
2022/03/01 01:16:47;;;;;;;16.80;6.80;;;;;;;;;;5073800;28;20037;-78
2022/03/01 01:19:13;;;;;;;12.38;4.70;;;;;;;;;;5073406;28;20037;-77
2022/03/01 01:24:24;;;;;;;9.35;5.20;;;;;;;;;;5074506;28;20040;-78
2022/03/01 01:26:50;;;;;;;11.02;5.65;;;;;;;;;;5069972;28;20155;-78
2022/03/01 01:29:16;;;;;;;13.35;5.80;;;;;;;;;;5071930;28;20040;-78
2022/03/01 01:31:43;;;;;;;11.77;5.68;;;;;;;;;;5076845;28;20051;-78
2022/03/01 01:34:09;;;;;;;16.10;5.80;;;;;;;;;;5074817;28;20194;-78
2022/03/01 01:36:35;;;;;;;14.23;5.88;;;;;;;;;;5073033;28;20133;-78
2022/03/01 01:39:01;;;;;;;15.65;6.97;;;;;;;;;;5071111;28;20033;-78
2022/03/01 01:41:27;;;;;;;14.63;6.55;;;;;;;;;;5069961;28;20041;-78
2022/03/01 01:43:53;;;;;;;11.07;5.50;;;;;;;;;;5068743;28;20075;-78
2022/03/01 01:46:19;;;;;;;11.95;4.82;;;;;;;;;;5073037;28;20115;-78
2022/03/01 01:48:45;;;;;;;9.00;5.40;;;;;;;;;;5069867;28;20046;-77
2022/03/01 01:51:11;;;;;;;12.23;6.40;;;;;;;;;;5068380;28;20149;-80
2022/03/01 01:53:38;;;;;;;10.82;5.20;;;;;;;;;;5066949;28;20608;-78
2022/03/01 01:56:04;;;;;;;8.50;6.30;;;;;;;;;;5072714;28;20115;-78
2022/03/01 01:58:30;;;;;;;12.30;4.88;;;;;;;;;;5073002;28;20051;-78
2022/03/01 02:00:56;;;;;;;13.18;6.63;;;;;;;;;;5079519;28;20787;-77
2022/03/01 02:03:22;;;;;;;14.98;6.20;;;;;;;;;;5097353;27;20040;-78
2022/03/01 02:05:48;;;;;;;15.18;6.22;;;;;;;;;;5080149;28;20142;-78
2022/03/01 02:08:14;;;;;;;13.60;6.45;;;;;;;;;;5098980;27;20047;-77
2022/03/01 02:10:40;;;;;;;12.00;5.00;;;;;;;;;;5078190;28;20040;-78
2022/03/01 02:13:06;;;;;;;14.25;6.13;;;;;;;;;;5075716;28;20044;-78
2022/03/01 02:15:35;;;;;;;14.90;6.57;;;;;;;;;;5078483;28;20091;-78
2022/03/01 02:18:02;;;;;;;13.95;6.78;;;;;;;;;;5079357;28;20040;-78
2022/03/01 02:20:30;;;;;;;12.30;6.10;;;;;;;;;;5096408;27;20095;-79
2022/03/01 02:22:56;;;;;;;12.90;6.60;;;;;;;;;;5076871;27;20055;-78
2022/03/01 02:25:23;;;;;;;14.05;5.55;;;;;;;;;;5093752;27;20040;-78
2022/03/01 02:27:49;;;;;;;18.17;6.22;;;;;;;;;;5091377;27;20182;-78
2022/03/01 02:30:15;;;;;;;15.43;6.72;;;;;;;;;;5072957;27;20043;-79
2022/03/01 02:32:42;;;;;;;16.15;5.80;;;;;;;;;;5078369;28;20039;-79
2022/03/01 02:35:09;;;;;;;11.85;4.32;;;;;;;;;;5075680;28;21799;-78
2022/03/01 02:37:35;;;;;;;13.48;7.15;;;;;;;;;;5079232;28;20036;-78
2022/03/01 02:40:01;;;;;;;13.95;5.75;;;;;;;;;;5096054;27;20044;-78
2022/03/01 02:42:30;;;;;;;13.27;6.07;;;;;;;;;;5090089;27;20982;-78
2022/03/01 02:44:56;;;;;;;15.50;7.10;;;;;;;;;;5095066;27;20036;-78
2022/03/01 02:47:22;;;;;;;12.38;5.57;;;;;;;;;;5076552;27;20048;-78
2022/03/01 02:49:48;;;;;;;12.27;6.13;;;;;;;;;;5074105;27;20124;-78
2022/03/01 02:52:15;;;;;;;13.02;5.90;;;;;;;;;;5095986;27;20185;-79
2022/03/01 02:54:41;;;;;;;13.50;6.05;;;;;;;;;;5077609;27;20093;-78
2022/03/01 02:57:07;;;;;;;9.60;5.10;;;;;;;;;;5094824;27;20139;-78
2022/03/01 02:59:33;;;;;;;14.88;6.78;;;;;;;;;;5093000;27;20044;-78
2022/03/01 03:02:00;;;;;;;11.98;5.95;;;;;;;;;;5073700;27;20080;-79
2022/03/01 03:04:26;;;;;;;14.45;6.25;;;;;;;;;;5076832;27;20036;-78
2022/03/01 03:06:52;;;;;;;13.15;5.70;;;;;;;;;;5077273;27;20037;-78
2022/03/01 03:09:18;;;;;;;13.68;5.93;;;;;;;;;;5075796;27;20679;-78
2022/03/01 03:11:45;;;;;;;12.00;5.63;;;;;;;;;;5082825;27;20040;-78
2022/03/01 03:14:11;;;;;;;11.63;6.38;;;;;;;;;;5077338;27;20042;-78
2022/03/01 03:16:37;;;;;;;12.82;5.38;;;;;;;;;;5068459;28;20123;-78
2022/03/01 03:19:03;;;;;;;12.77;5.68;;;;;;;;;;5089453;27;20083;-77
2022/03/01 03:21:29;;;;;;;10.27;5.45;;;;;;;;;;5093797;27;20084;-77
2022/03/01 03:23:55;;;;;;;12.95;5.78;;;;;;;;;;5080520;28;20505;-77
2022/03/01 03:26:21;;;;;;;9.27;5.22;;;;;;;;;;5075079;28;20044;-77
2022/03/01 03:28:47;;;;;;;14.40;5.47;;;;;;;;;;5090542;27;20123;-77
2022/03/01 03:31:14;;;;;;;9.52;5.38;;;;;;;;;;5081320;28;20040;-77
2022/03/01 03:33:40;;;;;;;10.68;5.15;;;;;;;;;;5091052;27;20037;-78
2022/03/01 03:36:06;;;;;;;14.77;5.65;;;;;;;;;;5072298;28;20051;-78
2022/03/01 03:38:32;;;;;;;14.43;6.18;;;;;;;;;;5076794;28;20106;-77
2022/03/01 03:40:58;;;;;;;14.23;6.07;;;;;;;;;;5074115;28;20040;-77
2022/03/01 03:43:24;;;;;;;9.50;5.50;;;;;;;;;;5074650;27;20056;-78
2022/03/01 03:45:51;;;;;;;13.30;6.10;;;;;;;;;;5075798;28;20480;-77
2022/03/01 03:48:17;;;;;;;12.48;6.07;;;;;;;;;;5074767;28;20048;-78
2022/03/01 03:50:43;;;;;;;13.60;5.00;;;;;;;;;;5074339;27;20083;-78
2022/03/01 03:53:10;;;;;;;12.20;6.63;;;;;;;;;;5073581;27;20064;-78
2022/03/01 03:55:36;;;;;;;13.02;5.38;;;;;;;;;;5077865;27;20044;-79
2022/03/01 03:58:02;;;;;;;12.55;6.18;;;;;;;;;;5078607;27;20109;-77
2022/03/01 04:00:28;;;;;;;12.48;6.07;;;;;;;;;;5071501;27;20074;-77
2022/03/01 04:02:54;;;;;;;12.57;5.50;;;;;;;;;;5078801;27;20140;-78
2022/03/01 04:05:21;;;;;;;13.43;6.45;;;;;;;;;;5089733;27;20040;-78
2022/03/01 04:07:47;;;;;;;17.05;5.90;;;;;;;;;;5076710;27;20127;-77
2022/03/01 04:10:14;;;;;;;15.52;6.78;;;;;;;;;;5089480;27;20127;-78
2022/03/01 04:12:40;;;;;;;11.82;5.18;;;;;;;;;;5077025;27;20955;-77
2022/03/01 04:15:07;;;;;;;10.77;5.63;;;;;;;;;;5073065;27;20040;-77
2022/03/01 04:17:33;;;;;;;11.70;4.97;;;;;;;;;;5095194;27;20049;-78
2022/03/01 04:19:59;;;;;;;10.32;5.40;;;;;;;;;;5091831;27;20087;-78
2022/03/01 04:22:26;;;;;;;15.55;6.65;;;;;;;;;;5088492;27;20116;-77
2022/03/01 04:24:52;;;;;;;13.52;5.32;;;;;;;;;;5074880;27;20032;-77
2022/03/01 04:27:18;;;;;;;13.57;6.28;;;;;;;;;;5070966;27;20130;-77
2022/03/01 04:29:45;;;;;;;12.55;6.13;;;;;;;;;;5096541;27;20119;-78
2022/03/01 04:32:11;;;;;;;10.60;5.30;;;;;;;;;;5076900;28;20078;-78
2022/03/01 04:34:38;;;;;;;11.93;5.55;;;;;;;;;;5091535;27;20044;-78
2022/03/01 04:37:04;;;;;;;12.75;5.75;;;;;;;;;;5090239;27;20628;-78
2022/03/01 04:39:30;;;;;;;14.30;6.28;;;;;;;;;;5074468;28;20051;-77
2022/03/01 04:41:57;;;;;;;16.48;6.28;;;;;;;;;;5077090;28;20035;-77
2022/03/01 04:44:23;;;;;;;11.23;5.57;;;;;;;;;;5071625;28;20043;-78
2022/03/01 04:46:50;;;;;;;17.20;6.80;;;;;;;;;;5097409;27;20036;-78
2022/03/01 04:49:16;;;;;;;17.20;5.78;;;;;;;;;;5089086;27;20051;-78
2022/03/01 04:51:42;;;;;;;16.10;5.93;;;;;;;;;;5094062;27;20152;-77
2022/03/01 04:54:08;;;;;;;15.80;6.93;;;;;;;;;;5076453;28;20040;-77
2022/03/01 04:56:34;;;;;;;15.82;6.15;;;;;;;;;;5089390;27;20055;-78
2022/03/01 04:59:00;;;;;;;13.70;7.07;;;;;;;;;;5073138;28;20036;-77
2022/03/01 05:01:26;;;;;;;12.82;6.65;;;;;;;;;;5066839;28;20049;-77
2022/03/01 05:03:53;;;;;;;15.88;6.60;;;;;;;;;;5071576;28;20037;-78
2022/03/01 05:06:20;;;;;;;8.77;4.57;;;;;;;;;;5070155;28;20600;-77
2022/03/01 05:08:46;;;;;;;13.48;5.75;;;;;;;;;;5067851;28;20048;-78
2022/03/01 05:11:12;;;;;;;14.75;5.25;;;;;;;;;;5073178;28;20577;-77
2022/03/01 05:13:38;;;;;;;13.85;6.50;;;;;;;;;;5070717;28;20055;-78
2022/03/01 05:16:04;;;;;;;15.00;5.57;;;;;;;;;;5073315;28;20430;-77
2022/03/01 05:18:30;;;;;;;15.00;6.22;;;;;;;;;;5069193;28;20074;-77
2022/03/01 05:20:56;;;;;;;12.77;5.88;;;;;;;;;;5075048;28;20036;-77
2022/03/01 05:23:22;;;;;;;13.60;6.43;;;;;;;;;;5075919;28;20048;-78
2022/03/01 05:25:49;;;;;;;10.50;5.85;;;;;;;;;;5071786;28;20049;-77
2022/03/01 05:28:15;;;;;;;12.68;5.82;;;;;;;;;;5071339;28;20397;-77
2022/03/01 05:30:41;;;;;;;14.40;6.32;;;;;;;;;;5073749;28;20040;-77
2022/03/01 05:33:07;;;;;;;14.10;6.53;;;;;;;;;;5080972;28;20118;-78
2022/03/01 05:35:33;;;;;;;14.82;6.72;;;;;;;;;;5074092;28;20519;-78
2022/03/01 05:38:00;;;;;;;11.20;5.80;;;;;;;;;;5073946;28;20994;-77
2022/03/01 05:40:27;;;;;;;14.63;6.53;;;;;;;;;;5075778;28;20032;-78
2022/03/01 05:42:54;;;;;;;12.88;5.28;;;;;;;;;;5075655;28;20427;-78
2022/03/01 05:45:20;;;;;;;14.38;6.88;;;;;;;;;;5067538;28;20126;-78
2022/03/01 05:47:47;;;;;;;12.77;6.18;;;;;;;;;;5076769;28;20040;-78
2022/03/01 05:50:14;;;;;;;10.13;6.10;;;;;;;;;;5074793;28;20041;-78
2022/03/01 05:52:41;;;;;;;12.75;6.18;;;;;;;;;;5076835;28;20037;-77
2022/03/01 05:55:08;;;;;;;12.63;6.55;;;;;;;;;;5076250;28;20040;-78
2022/03/01 05:57:34;;;;;;;11.95;6.93;;;;;;;;;;5066151;28;20382;-78
2022/03/01 06:00:00;;;;;;;10.88;5.70;;;;;;;;;;5073353;28;20036;-79
2022/03/01 06:02:26;;;;;;;12.73;6.60;;;;;;;;;;5074017;28;20044;-78
2022/03/01 06:04:52;;;;;;;12.60;5.40;;;;;;;;;;5073190;28;20094;-78
2022/03/01 06:07:19;;;;;;;14.25;6.38;;;;;;;;;;5072949;28;20572;-78
2022/03/01 06:09:45;;;;;;;13.68;5.38;;;;;;;;;;5074608;28;20323;-78
2022/03/01 06:12:11;;;;;;;12.15;5.78;;;;;;;;;;5076477;28;20115;-78
2022/03/01 06:14:37;;;;;;;13.30;6.35;;;;;;;;;;5073461;28;20095;-78
2022/03/01 06:17:04;;;;;;;13.93;5.57;;;;;;;;;;5068449;28;20034;-77
2022/03/01 06:19:30;;;;;;;15.15;6.15;;;;;;;;;;5071598;28;20050;-82
2022/03/01 06:21:56;;;;;;;13.32;7.50;;;;;;;;;;5071296;28;20044;-77
2022/03/01 06:24:23;;;;;;;12.98;6.35;;;;;;;;;;5071141;28;20553;-78
2022/03/01 06:26:49;;;;;;;13.63;6.00;;;;;;;;;;5071310;28;20116;-78
2022/03/01 06:29:15;;;;;;;15.05;7.32;;;;;;;;;;5075254;28;20079;-78
2022/03/01 06:31:41;;;;;;;11.73;5.45;;;;;;;;;;5074026;28;20036;-78
2022/03/01 06:34:07;;;;;;;10.95;5.90;;;;;;;;;;5073165;28;20102;-79
2022/03/01 06:36:34;;;;;;;11.00;5.70;;;;;;;;;;5075087;28;20143;-79
2022/03/01 06:39:00;;;;;;;10.93;5.70;;;;;;;;;;5070138;28;20955;-78
2022/03/01 06:41:26;;;;;;;12.30;7.00;;;;;;;;;;5070534;28;20531;-79
2022/03/01 06:43:52;;;;;;;12.13;5.25;;;;;;;;;;5074854;28;20869;-77
2022/03/01 06:46:21;;;;;;;11.02;6.40;;;;;;;;;;5069015;28;20119;-81
2022/03/01 06:48:48;;;;;;;12.57;5.85;;;;;;;;;;5075267;28;20095;-78
2022/03/01 06:51:14;;;;;;;14.10;6.22;;;;;;;;;;5073321;28;20049;-78
2022/03/01 06:53:40;;;;;;;13.90;6.05;;;;;;;;;;5073576;28;20045;-79
2022/03/01 06:56:06;;;;;;;12.65;5.93;;;;;;;;;;5072251;28;20059;-76
2022/03/01 06:58:36;;;;;;;14.80;6.82;;;;;;;;;;5071924;28;20045;-83
2022/03/01 07:01:02;;;;;;;16.30;7.78;;;;;;;;;;5074481;27;20051;-77
2022/03/01 07:03:28;;;;;;;12.07;6.13;;;;;;;;;;5081726;27;20048;-78
2022/03/01 07:05:54;;;;;;;12.85;6.05;;;;;;;;;;5075107;28;20101;-79
2022/03/01 07:08:22;;;;;;;12.98;6.20;;;;;;;;;;5073055;27;20070;-78
2022/03/01 07:10:51;;;;;;;17.02;6.72;;;;;;;;;;5074140;27;20044;-79
2022/03/01 07:13:17;;;;;;;10.95;5.90;;;;;;;;;;5077625;27;20563;-77
2022/03/01 07:15:44;;;;;;;13.20;6.15;;;;;;;;;;5091168;27;20020;-77
2022/03/01 07:18:10;;;;;;;13.65;6.88;;;;;;;;;;5086984;27;20125;-79
2022/03/01 07:20:36;;;;;;;13.50;6.63;;;;;;;;;;5091410;27;20481;-80
2022/03/01 07:23:02;;;;;;;13.43;6.90;;;;;;;;;;5092247;27;20511;-80
2022/03/01 07:25:28;;;;;;;12.35;7.28;;;;;;;;;;5093438;27;20044;-81
2022/03/01 07:27:55;;;;;;;15.00;6.88;;;;;;;;;;5097321;27;20102;-81
2022/03/01 07:30:22;;;;;;;13.52;6.55;;;;;;;;;;5074197;28;20059;-80
2022/03/01 07:32:49;;;;;;;14.70;6.70;;;;;;;;;;5078056;28;20044;-81
2022/03/01 07:35:15;;;;;;;14.50;6.88;;;;;;;;;;5090427;27;20037;-80
2022/03/01 07:37:42;;;;;;;15.07;7.07;;;;;;;;;;5072909;28;20582;-81
2022/03/01 07:40:10;;;;;;;19.05;6.60;;;;;;;;;;5075639;28;20156;-80
2022/03/01 07:42:36;;;;;;;18.00;7.53;;;;;;;;;;5092534;27;20044;-82
2022/03/01 07:45:02;;;;;;;12.85;6.72;;;;;;;;;;5074784;28;20123;-81
2022/03/01 07:47:28;;;;;;;17.35;8.38;;;;;;;;;;5076752;28;20115;-80
2022/03/01 07:49:54;;;;;;;13.57;7.30;;;;;;;;;;5076869;28;20051;-79
2022/03/01 07:52:20;;;;;;;12.73;7.55;;;;;;;;;;5071347;28;20048;-79
2022/03/01 07:54:48;;;;;;;15.95;7.43;;;;;;;;;;5090582;27;20047;-80
2022/03/01 07:57:14;;;;;;;11.50;6.60;;;;;;;;;;5070889;28;20047;-81
2022/03/01 07:59:40;;;;;;;12.75;7.45;;;;;;;;;;5095835;27;20039;-80
2022/03/01 08:02:09;;;;;;;16.20;7.32;;;;;;;;;;5091679;27;20802;-82
2022/03/01 08:04:37;;;;;;;15.65;7.30;;;;;;;;;;5091779;27;20518;-80
2022/03/01 08:07:04;;;;;;;12.50;6.75;;;;;;;;;;5071585;28;20683;-82
2022/03/01 08:09:30;;;;;;;13.18;6.40;;;;;;;;;;5072356;27;20032;-82
2022/03/01 08:11:56;;;;;;;14.63;6.82;;;;;;;;;;5091572;27;20040;-80
2022/03/01 08:14:23;;;;;;;17.17;7.15;;;;;;;;;;5078819;27;20040;-80
2022/03/01 08:16:51;;;;;;;15.25;7.68;;;;;;;;;;5085530;27;20067;-79
2022/03/01 08:19:17;;;;;;;11.38;6.18;;;;;;;;;;5101485;27;20043;-79
2022/03/01 08:21:43;;;;;;;10.70;5.72;;;;;;;;;;5088638;27;20040;-79
2022/03/01 08:24:09;;;;;;;11.23;6.07;;;;;;;;;;5088942;27;20045;-79
2022/03/01 08:26:35;;;;;;;15.05;6.40;;;;;;;;;;5104447;27;20075;-79
2022/03/01 08:29:01;;;;;;;12.43;6.30;;;;;;;;;;5102437;27;20098;-79
2022/03/01 08:31:28;;;;;;;16.25;6.75;;;;;;;;;;5086265;27;20093;-80
2022/03/01 08:34:01;;;;;;;11.95;6.43;;;;;;;;;;5076538;28;20044;-80
2022/03/01 08:36:27;;;;;;;11.40;5.60;;;;;;;;;;5095893;27;20044;-79
2022/03/01 08:38:54;;;;;;;16.35;6.32;;;;;;;;;;5080434;27;20036;-79
2022/03/01 08:41:20;;;;;;;13.73;6.30;;;;;;;;;;5084278;27;20165;-79
2022/03/01 08:43:46;;;;;;;12.65;7.32;;;;;;;;;;5100012;27;20048;-80
2022/03/01 08:46:13;;;;;;;12.68;7.15;;;;;;;;;;5089291;27;20032;-80
2022/03/01 08:48:40;;;;;;;12.95;5.80;;;;;;;;;;5077279;27;20160;-80
2022/03/01 08:51:06;;;;;;;11.63;5.65;;;;;;;;;;5101979;27;20637;-80
2022/03/01 08:53:32;;;;;;;14.88;6.45;;;;;;;;;;5083745;27;20044;-80
2022/03/01 08:55:59;;;;;;;13.48;6.47;;;;;;;;;;5094933;27;20048;-80
2022/03/01 08:58:25;;;;;;;10.88;6.40;;;;;;;;;;5079595;27;20603;-80
2022/03/01 09:00:52;;;;;;;14.25;6.78;;;;;;;;;;5084640;27;20044;-80
2022/03/01 09:03:18;;;;;;;11.23;6.88;;;;;;;;;;5099426;27;20051;-80
2022/03/01 09:05:44;;;;;;;13.18;6.57;;;;;;;;;;5076558;28;20939;-80
2022/03/01 09:08:13;;;;;;;11.13;6.65;;;;;;;;;;5084501;28;20044;-80
2022/03/01 09:10:40;;;;;;;15.73;5.75;;;;;;;;;;5082684;28;20052;-80
2022/03/01 09:13:07;;;;;;;14.70;6.65;;;;;;;;;;5085582;28;20047;-81
2022/03/01 09:15:33;;;;;;;16.55;7.85;;;;;;;;;;5105860;27;20094;-81
2022/03/01 09:18:05;;;;;;;15.27;7.47;;;;;;;;;;5086090;28;20069;-80
2022/03/01 09:20:31;;;;;;;13.63;7.47;;;;;;;;;;5082895;28;20044;-80
2022/03/01 09:22:57;;;;;;;13.00;6.65;;;;;;;;;;5080490;28;20052;-80
2022/03/01 09:25:24;;;;;;;12.13;6.55;;;;;;;;;;5078284;28;20114;-80
2022/03/01 09:27:50;;;;;;;12.48;6.47;;;;;;;;;;5081913;28;20924;-80
2022/03/01 09:30:17;;;;;;;12.02;7.57;;;;;;;;;;5094931;27;20048;-80
2022/03/01 09:32:43;;;;;;;12.40;6.53;;;;;;;;;;5076700;28;20131;-80
2022/03/01 09:35:10;;;;;;;12.52;7.32;;;;;;;;;;5097368;27;20090;-80
2022/03/01 09:37:36;;;;;;;12.68;5.97;;;;;;;;;;5093344;27;20577;-79
2022/03/01 09:40:04;;;;;;;13.13;6.82;;;;;;;;;;5079597;28;20044;-80
2022/03/01 09:42:31;;;;;;;17.00;7.80;;;;;;;;;;5094936;27;20048;-80
2022/03/01 09:44:57;;;;;;;11.93;6.18;;;;;;;;;;5076529;28;20061;-80
2022/03/01 09:47:23;;;;;;;14.93;7.70;;;;;;;;;;5092424;27;20044;-80
2022/03/01 09:49:49;;;;;;;11.82;6.15;;;;;;;;;;5076434;28;20045;-80
2022/03/01 09:52:15;;;;;;;14.20;7.30;;;;;;;;;;5077032;27;20040;-80
2022/03/01 09:54:42;;;;;;;12.77;7.03;;;;;;;;;;5090104;27;20041;-80
2022/03/01 09:57:08;;;;;;;13.27;6.63;;;;;;;;;;5080523;27;20078;-79
2022/03/01 09:59:34;;;;;;;10.63;6.25;;;;;;;;;;5094469;27;20070;-80
2022/03/01 10:02:00;;;;;;;10.98;6.70;;;;;;;;;;5071465;28;20335;-80
2022/03/01 10:04:26;;;;;;;12.60;6.28;;;;;;;;;;5080131;28;20064;-79
2022/03/01 10:06:52;;;;;;;15.65;6.35;;;;;;;;;;5079765;28;20483;-80
2022/03/01 10:09:20;;;;;;;11.82;6.78;;;;;;;;;;5070006;28;20128;-79
2022/03/01 10:11:46;;;;;;;13.20;7.07;;;;;;;;;;5070473;28;20944;-81
2022/03/01 10:14:12;;;;;;;13.82;6.45;;;;;;;;;;5067339;28;20044;-79
2022/03/01 10:16:43;;;;;;;10.40;5.78;;;;;;;;;;5076746;28;20144;-79
2022/03/01 10:19:11;;;;;;;12.32;5.63;;;;;;;;;;5075397;28;20048;-80
2022/03/01 10:21:37;;;;;;;12.35;5.90;;;;;;;;;;5074356;28;20052;-80
2022/03/01 10:24:06;;;;;;;12.85;6.00;;;;;;;;;;5073241;28;20041;-80
2022/03/01 10:26:32;;;;;;;12.07;6.20;;;;;;;;;;5075559;28;20119;-79
2022/03/01 10:28:59;;;;;;;9.18;5.20;;;;;;;;;;5076200;28;20048;-80
2022/03/01 10:31:30;;;;;;;11.82;7.13;;;;;;;;;;5072848;28;20880;-81
2022/03/01 10:33:57;;;;;;;9.80;6.20;;;;;;;;;;5072932;28;20101;-79
2022/03/01 10:36:25;;;;;;;8.82;5.97;;;;;;;;;;5074158;28;20040;-80
2022/03/01 10:38:59;;;;;;;10.38;5.65;;;;;;;;;;5069160;28;20439;-79
2022/03/01 10:41:27;;;;;;;11.48;6.47;;;;;;;;;;5072495;28;20127;-80
2022/03/01 10:43:57;;;;;;;14.65;6.32;;;;;;;;;;5070708;28;20094;-79
2022/03/01 10:46:24;;;;;;;12.38;6.40;;;;;;;;;;5072108;28;20118;-79
2022/03/01 10:49:02;;;;;;;12.65;6.93;;;;;;;;;;5078633;28;20040;-80
2022/03/01 10:51:28;;;;;;;16.08;6.78;;;;;;;;;;5074196;28;20058;-79
2022/03/01 10:53:55;;;;;;;10.57;6.35;;;;;;;;;;5074932;28;20037;-79
2022/03/01 10:56:21;;;;;;;12.40;7.18;;;;;;;;;;5073473;28;20086;-79
2022/03/01 10:58:48;;;;;;;10.48;6.57;;;;;;;;;;5074585;28;20047;-80
2022/03/01 11:01:14;;;;;;;15.88;7.90;;;;;;;;;;5074779;28;20044;-80
2022/03/01 11:03:40;;;;;;;11.80;5.65;;;;;;;;;;5073343;28;20036;-80
2022/03/01 11:06:06;;;;;;;17.98;6.57;;;;;;;;;;5071110;28;20089;-80
2022/03/01 11:08:34;;;;;;;13.52;7.35;;;;;;;;;;5071984;28;20051;-79
2022/03/01 11:11:01;;;;;;;12.55;6.15;;;;;;;;;;5068957;28;20044;-80
2022/03/01 11:13:28;;;;;;;16.67;7.07;;;;;;;;;;5073095;28;20043;-79
2022/03/01 11:16:04;;;;;;;11.23;5.85;;;;;;;;;;5076453;28;20055;-80
2022/03/01 11:18:30;;;;;;;12.40;6.65;;;;;;;;;;5083097;28;20048;-79
2022/03/01 11:20:57;;;;;;;8.35;5.38;;;;;;;;;;5080501;28;20041;-79
2022/03/01 11:23:24;;;;;;;12.48;5.75;;;;;;;;;;5075285;28;20132;-79
2022/03/01 11:25:52;;;;;;;10.85;6.07;;;;;;;;;;5078289;28;20032;-80
2022/03/01 11:28:28;;;;;;;10.05;6.57;;;;;;;;;;5076627;28;20076;-80
2022/03/01 11:30:55;;;;;;;14.38;7.05;;;;;;;;;;5075989;28;20036;-80
2022/03/01 11:33:27;;;;;;;12.10;6.18;;;;;;;;;;5072672;28;20068;-80
2022/03/01 11:35:55;;;;;;;14.05;6.93;;;;;;;;;;5072898;28;20041;-80
2022/03/01 11:38:25;;;;;;;10.82;6.22;;;;;;;;;;5077992;28;20537;-80
2022/03/01 11:40:51;;;;;;;16.52;6.15;;;;;;;;;;5074699;28;20091;-80
2022/03/01 11:43:20;;;;;;;14.50;6.85;;;;;;;;;;5075103;28;20461;-80
2022/03/01 11:45:50;;;;;;;11.40;6.05;;;;;;;;;;5072954;28;20127;-80
2022/03/01 11:48:18;;;;;;;12.48;6.50;;;;;;;;;;5070705;28;20048;-80
2022/03/01 11:50:55;;;;;;;15.02;6.05;;;;;;;;;;5078818;28;20090;-80
2022/03/01 11:53:21;;;;;;;8.32;4.50;;;;;;;;;;5065398;28;20543;-80
2022/03/01 11:55:51;;;;;;;11.63;5.82;;;;;;;;;;5081476;28;20127;-81
2022/03/01 11:58:18;;;;;;;12.73;6.15;;;;;;;;;;5077706;28;20041;-79
2022/03/01 12:00:45;;;;;;;10.68;5.78;;;;;;;;;;5072892;28;20205;-80
2022/03/01 12:03:15;;;;;;;8.73;4.97;;;;;;;;;;5073204;28;20051;-80
2022/03/01 12:05:45;;;;;;;10.15;5.97;;;;;;;;;;5071445;28;20079;-80
2022/03/01 12:08:12;;;;;;;8.35;5.07;;;;;;;;;;5077978;28;20079;-80
2022/03/01 12:10:38;;;;;;;11.57;5.15;;;;;;;;;;5078371;28;20039;-80
2022/03/01 12:13:07;;;;;;;9.40;5.53;;;;;;;;;;5087526;27;20514;-79
2022/03/01 12:15:40;;;;;;;13.75;6.13;;;;;;;;;;5095030;27;20044;-80
2022/03/01 12:18:06;;;;;;;;;;;;;;;;;;5090830;27;20144;-80
2022/03/01 12:20:32;;;;;;;8.65;4.75;;;;;;;;;;5074730;27;19927;-80
2022/03/01 12:22:59;;;;;;;9.13;4.93;;;;;;;;;;5075535;28;20609;-80
2022/03/01 12:25:27;;;;;;;11.48;6.65;;;;;;;;;;5072855;28;20037;-79
2022/03/01 12:27:53;;;;;;;11.07;5.15;;;;;;;;;;5076090;28;20032;-80
2022/03/01 12:30:21;;;;;;;7.38;4.03;;;;;;;;;;5093220;27;20434;-80
2022/03/01 12:32:56;;;;;;;9.02;5.07;;;;;;;;;;5091523;27;20157;-80
2022/03/01 12:35:23;;;;;;;9.25;4.90;;;;;;;;;;5078347;27;20048;-80
2022/03/01 12:37:50;;;;;;;7.18;4.32;;;;;;;;;;5094317;27;20044;-79
2022/03/01 12:40:29;;;;;;;11.70;4.95;;;;;;;;;;5075005;27;20051;-80
2022/03/01 12:43:00;;;;;;;7.78;5.18;;;;;;;;;;5072408;27;20040;-80
2022/03/01 12:45:55;;;;;;;9.88;5.63;;;;;;;;;;5071186;27;20131;-81
2022/03/01 12:48:21;;;;;;;9.70;5.78;;;;;;;;;;5065067;28;20060;-80
2022/03/01 12:50:49;;;;;;;7.85;5.00;;;;;;;;;;5090849;27;20044;-80
2022/03/01 12:53:16;;;;;;;12.05;5.15;;;;;;;;;;5075197;28;20041;-79
2022/03/01 12:55:46;;;;;;;13.13;5.57;;;;;;;;;;5073934;28;20127;-80
2022/03/01 12:58:16;;;;;;;7.15;4.15;;;;;;;;;;5076911;28;20060;-80
2022/03/01 13:00:42;;;;;;;9.10;4.82;;;;;;;;;;5071320;28;20097;-79
2022/03/01 13:03:08;;;;;;;9.55;4.78;;;;;;;;;;5080615;28;20044;-80
2022/03/01 13:05:34;;;;;;;9.75;5.93;;;;;;;;;;5072873;28;20039;-80
2022/03/01 13:08:01;;;;;;;9.27;4.38;;;;;;;;;;5096334;27;20048;-80
2022/03/01 13:10:33;;;;;;;6.40;3.90;;;;;;;;;;5070699;28;20055;-79
2022/03/01 13:13:00;;;;;;;9.55;4.70;;;;;;;;;;5078106;28;20047;-80
2022/03/01 13:15:27;;;;;;;9.20;4.70;;;;;;;;;;5073612;28;20045;-80
2022/03/01 13:17:53;;;;;;;7.35;4.72;;;;;;;;;;5093326;27;20170;-80
2022/03/01 13:20:21;;;;;;;10.02;4.68;;;;;;;;;;5073608;28;20518;-80
2022/03/01 13:22:57;;;;;;;10.98;5.38;;;;;;;;;;5070580;28;20605;-80
2022/03/01 13:25:24;;;;;;;11.35;4.95;;;;;;;;;;5072434;27;20473;-80
2022/03/01 13:27:50;;;;;;;8.90;5.03;;;;;;;;;;5077301;28;20037;-80
2022/03/01 13:30:21;;;;;;;10.10;4.50;;;;;;;;;;5078353;28;20036;-80
2022/03/01 13:32:48;;;;;;;8.57;4.60;;;;;;;;;;5073996;28;20135;-80
2022/03/01 13:35:16;;;;;;;8.50;3.60;;;;;;;;;;5072877;28;20099;-80
2022/03/01 13:37:43;;;;;;;12.02;4.18;;;;;;;;;;5087003;27;20124;-80
2022/03/01 13:40:09;;;;;;;8.60;4.20;;;;;;;;;;5086823;27;20098;-80
2022/03/01 13:42:36;;;;;;;8.60;3.75;;;;;;;;;;5076271;28;20108;-80
2022/03/01 13:45:09;;;;;;;6.88;4.55;;;;;;;;;;5091458;27;20041;-80
2022/03/01 13:47:36;;;;;;;8.70;4.03;;;;;;;;;;5090942;27;20170;-80
2022/03/01 13:50:05;;;;;;;9.02;4.60;;;;;;;;;;5078033;28;20044;-80
2022/03/01 13:52:35;;;;;;;9.88;4.38;;;;;;;;;;5076547;27;20088;-79
2022/03/01 13:55:03;;;;;;;9.40;4.70;;;;;;;;;;5082613;27;20041;-80
2022/03/01 13:57:31;;;;;;;10.15;3.72;;;;;;;;;;5097075;27;20523;-80
2022/03/01 13:59:58;;;;;;;10.20;4.50;;;;;;;;;;5100699;27;20044;-81
2022/03/01 14:02:24;;;;;;;10.02;4.47;;;;;;;;;;5077512;27;20066;-79
2022/03/01 14:05:07;;;;;;;7.50;4.22;;;;;;;;;;5094411;27;20044;-80
2022/03/01 14:07:36;;;;;;;9.55;4.85;;;;;;;;;;5075979;27;20080;-80
2022/03/01 14:10:03;;;;;;;12.23;5.00;;;;;;;;;;5094893;27;20043;-80
2022/03/01 14:12:40;;;;;;;11.13;5.90;;;;;;;;;;5075626;27;20040;-80
2022/03/01 14:15:08;;;;;;;9.20;5.28;;;;;;;;;;5079692;28;20046;-80
2022/03/01 14:17:34;;;;;;;8.70;4.68;;;;;;;;;;5086515;27;20516;-81
2022/03/01 14:20:01;;;;;;;15.93;5.93;;;;;;;;;;5096988;27;20056;-80
2022/03/01 14:22:28;;;;;;;10.40;4.68;;;;;;;;;;5100320;27;20968;-78
2022/03/01 14:25:01;;;;;;;7.68;4.22;;;;;;;;;;5099959;27;20088;-78
2022/03/01 14:27:28;;;;;;;7.10;4.55;;;;;;;;;;5098621;27;20075;-78
2022/03/01 14:29:54;;;;;;;7.45;3.92;;;;;;;;;;5077648;27;20147;-79
2022/03/01 14:32:21;;;;;;;12.38;4.70;;;;;;;;;;5085392;27;20044;-80